createdAt,value
2023-05-05T00:01:42.453Z,2.28
2023-05-05T00:04:45.333Z,1.88
2023-05-05T00:07:49.617Z,2.50
2023-05-05T00:10:54.127Z,2.30
2023-05-05T00:13:56.902Z,2.30
2023-05-05T00:16:59.728Z,2.20
2023-05-05T00:20:02.490Z,2.10
2023-05-05T00:23:06.845Z,2.13
2023-05-05T00:26:09.617Z,2.17
2023-05-05T00:29:14.090Z,2.42
2023-05-05T00:32:16.911Z,2.17
2023-05-05T00:35:19.757Z,1.90
2023-05-05T00:38:23.933Z,2.03
2023-05-05T00:41:26.740Z,1.80
2023-05-05T00:44:37.897Z,2.42
2023-05-05T00:47:42.738Z,2.03
2023-05-05T00:50:45.924Z,1.65
2023-05-05T00:53:50.265Z,2.20
2023-05-05T00:56:53.436Z,1.90
2023-05-05T00:59:57.364Z,1.70
2023-05-05T01:03:00.783Z,2.10
2023-05-05T01:06:16.512Z,2.20
2023-05-05T01:09:29.662Z,2.00
2023-05-05T01:12:42.479Z,1.80
2023-05-05T01:15:49.182Z,1.73
2023-05-05T01:18:57.728Z,1.95
2023-05-05T01:22:03.451Z,2.28
2023-05-05T01:25:37.972Z,2.00
2023-05-05T01:29:02.140Z,2.13
2023-05-05T01:32:10.420Z,1.67
2023-05-05T01:35:19.234Z,1.63
2023-05-05T01:38:26.093Z,1.77
2023-05-05T01:41:33.072Z,2.00
2023-05-05T01:47:45.090Z,1.70
2023-05-05T01:50:49.779Z,1.80
2023-05-05T01:53:55.453Z,1.73
2023-05-05T01:57:00.121Z,1.88
2023-05-05T02:00:06.134Z,1.92
2023-05-05T02:03:20.740Z,1.83
2023-05-05T02:06:25.579Z,1.92
2023-05-05T02:09:29.618Z,1.60
2023-05-05T02:12:35.218Z,1.90
2023-05-05T02:15:39.397Z,2.00
2023-05-05T02:18:44.185Z,1.60
2023-05-05T02:21:47.016Z,1.73
2023-05-05T02:24:49.790Z,1.80
2023-05-05T02:28:00.579Z,1.55
2023-05-05T02:31:06.803Z,1.95
2023-05-05T02:34:12.297Z,1.85
2023-05-05T02:37:21.049Z,1.90
2023-05-05T02:40:29.715Z,1.90
2023-05-05T02:43:34.092Z,1.60
2023-05-05T02:46:38.902Z,1.85
2023-05-05T02:49:43.868Z,1.70
2023-05-05T02:52:47.046Z,2.20
2023-05-05T02:55:54.787Z,1.60
2023-05-05T02:59:09.912Z,1.50
2023-05-05T03:02:19.147Z,1.60
2023-05-05T03:05:29.346Z,1.80
2023-05-05T03:08:42.146Z,1.52
2023-05-05T03:11:48.854Z,1.60
2023-05-05T03:14:55.366Z,2.00
2023-05-05T03:18:01.281Z,1.70
2023-05-05T03:21:09.001Z,1.58
2023-05-05T03:24:16.431Z,1.33
2023-05-05T03:27:23.356Z,1.70
2023-05-05T03:30:27.281Z,1.70
2023-05-05T03:33:30.016Z,1.77
2023-05-05T03:36:36.993Z,1.58
2023-05-05T03:39:39.957Z,1.40
2023-05-05T03:42:44.080Z,1.63
2023-05-05T03:45:47.377Z,1.45
2023-05-05T03:48:50.347Z,1.83
2023-05-05T03:51:54.480Z,1.80
2023-05-05T03:54:57.765Z,1.60
2023-05-05T03:58:00.545Z,1.63
2023-05-05T04:01:03.900Z,1.80
2023-05-05T04:04:06.832Z,1.50
2023-05-05T04:07:11.172Z,1.40
2023-05-05T04:10:14.360Z,1.70
2023-05-05T04:13:17.240Z,1.33
2023-05-05T04:16:20.735Z,1.67
2023-05-05T04:19:23.560Z,1.50
2023-05-05T04:22:27.781Z,1.40
2023-05-05T04:25:30.669Z,1.75
2023-05-05T04:28:33.756Z,1.83
2023-05-05T04:31:36.773Z,1.45
2023-05-05T04:34:39.627Z,1.45
2023-05-05T04:37:43.960Z,1.35
2023-05-05T04:40:46.897Z,1.70
2023-05-05T04:43:49.801Z,1.33
2023-05-05T04:46:52.711Z,1.60
2023-05-05T04:49:56.978Z,1.50
2023-05-05T04:53:01.229Z,1.23
2023-05-05T04:56:04.167Z,1.50
2023-05-05T04:59:07.560Z,1.40
2023-05-05T05:02:10.413Z,1.77
2023-05-05T05:05:13.283Z,1.85
2023-05-05T05:08:18.456Z,1.40
2023-05-05T05:11:21.451Z,1.33
2023-05-05T05:14:24.342Z,1.50
2023-05-05T05:17:27.382Z,1.50
2023-05-05T05:20:31.044Z,1.50
2023-05-05T05:23:35.408Z,1.42
2023-05-05T05:26:38.527Z,1.45
2023-05-05T05:29:42.404Z,1.42
2023-05-05T05:32:45.505Z,1.38
2023-05-05T05:35:48.308Z,1.52
2023-05-05T05:38:53.205Z,1.55
2023-05-05T05:41:56.017Z,1.27
2023-05-05T05:44:59.485Z,1.40
2023-05-05T05:48:02.671Z,1.45
2023-05-05T05:51:05.810Z,1.40
2023-05-05T05:54:10.068Z,1.50
2023-05-05T05:57:13.156Z,1.40
2023-05-05T06:00:16.837Z,1.33
2023-05-05T06:03:26.697Z,1.40
2023-05-05T06:06:29.663Z,1.45
2023-05-05T06:09:33.799Z,1.55
2023-05-05T06:12:36.677Z,1.30
2023-05-05T06:15:39.588Z,1.60
2023-05-05T06:18:43.164Z,1.45
2023-05-05T06:21:45.952Z,1.15
2023-05-05T06:24:50.100Z,1.48
2023-05-05T06:27:53.386Z,1.25
2023-05-05T06:30:56.464Z,1.50
2023-05-05T06:33:59.265Z,1.60
2023-05-05T06:37:02.088Z,1.52
2023-05-05T06:40:07.978Z,1.50
2023-05-05T06:43:11.158Z,1.30
2023-05-05T06:46:18.585Z,1.83
2023-05-05T06:49:21.684Z,1.48
2023-05-05T06:52:24.489Z,1.45
2023-05-05T06:55:28.752Z,1.67
2023-05-05T06:58:31.617Z,1.55
2023-05-05T07:01:34.393Z,1.45
2023-05-05T07:04:37.447Z,1.30
2023-05-05T07:07:42.278Z,1.52
2023-05-05T07:10:47.134Z,1.33
2023-05-05T07:13:50.320Z,1.50
2023-05-05T07:16:53.128Z,1.42
2023-05-05T07:19:56.023Z,1.50
2023-05-05T07:22:58.790Z,1.50
2023-05-05T07:26:02.986Z,1.77
2023-05-05T07:29:07.127Z,1.70
2023-05-05T07:32:09.954Z,1.50
2023-05-05T07:35:13.152Z,1.50
2023-05-05T07:38:16.118Z,1.38
2023-05-05T07:41:20.258Z,1.50
2023-05-05T07:44:23.105Z,1.60
2023-05-05T07:47:25.996Z,1.48
2023-05-05T07:50:28.949Z,1.20
2023-05-05T07:53:32.000Z,1.40
2023-05-05T07:56:36.147Z,1.40
2023-05-05T07:59:43.203Z,1.42
2023-05-05T08:02:46.400Z,1.10
2023-05-05T08:05:51.599Z,1.60
2023-05-05T08:08:54.961Z,1.58
2023-05-05T08:11:59.071Z,1.50
2023-05-05T08:15:01.849Z,1.42
2023-05-05T08:18:04.874Z,1.30
2023-05-05T08:21:09.108Z,1.60
2023-05-05T08:24:11.925Z,1.70
2023-05-05T08:27:16.052Z,1.30
2023-05-05T08:30:20.820Z,1.33
2023-05-05T08:33:23.646Z,1.20
2023-05-05T08:36:27.246Z,1.70
2023-05-05T08:39:30.021Z,1.50
2023-05-05T08:42:38.525Z,1.50
2023-05-05T08:45:43.044Z,1.50
2023-05-05T08:48:46.947Z,1.55
2023-05-05T08:51:52.210Z,1.23
2023-05-05T08:55:02.086Z,1.20
2023-05-05T08:58:07.345Z,1.30
2023-05-05T09:01:11.480Z,1.45
2023-05-05T09:04:14.368Z,1.38
2023-05-05T09:07:17.224Z,1.52
2023-05-05T09:10:20.593Z,1.40
2023-05-05T09:13:24.875Z,1.65
2023-05-05T09:16:27.598Z,2.10
2023-05-05T09:19:30.355Z,1.50
2023-05-05T09:22:37.739Z,1.83
2023-05-05T09:25:41.186Z,3.05
2023-05-05T09:28:53.879Z,2.67
2023-05-05T09:32:05.869Z,3.00
2023-05-05T09:35:09.743Z,2.20
2023-05-05T09:38:12.964Z,2.22
2023-05-05T09:41:15.970Z,2.13
2023-05-05T09:44:34.581Z,2.42
2023-05-05T09:47:38.237Z,2.45
2023-05-05T09:50:45.117Z,2.25
2023-05-05T09:53:47.963Z,1.95
2023-05-05T09:56:52.371Z,2.00
2023-05-05T10:00:00.698Z,2.60
2023-05-05T10:03:03.989Z,2.00
2023-05-05T10:06:07.819Z,2.00
2023-05-05T10:09:10.811Z,2.45
2023-05-05T10:12:13.613Z,2.10
2023-05-05T10:15:18.106Z,2.10
2023-05-05T10:18:23.341Z,2.15
2023-05-05T10:21:26.813Z,2.63
2023-05-05T10:24:38.111Z,2.05
2023-05-05T10:27:45.922Z,1.50
2023-05-05T10:30:53.359Z,1.90
2023-05-05T10:34:03.889Z,1.83
2023-05-05T10:37:07.783Z,1.90
2023-05-05T10:40:11.743Z,1.90
2023-05-05T10:43:14.951Z,1.67
2023-05-05T10:46:19.391Z,2.10
2023-05-05T10:49:29.683Z,2.25
2023-05-05T10:52:38.806Z,2.35
2023-05-05T10:55:48.313Z,2.50
2023-05-05T10:58:59.800Z,2.92
2023-05-05T11:02:19.450Z,2.50
2023-05-05T11:05:22.529Z,2.50
2023-05-05T11:08:28.533Z,2.40
2023-05-05T11:12:05.135Z,2.13
2023-05-05T11:15:41.575Z,2.88
2023-05-05T11:18:45.803Z,2.13
2023-05-05T11:22:01.636Z,2.30
2023-05-05T11:25:37.075Z,2.92
2023-05-05T11:28:58.577Z,2.40
2023-05-05T11:32:14.266Z,2.40
2023-05-05T11:35:18.745Z,2.10
2023-05-05T11:38:27.094Z,2.50
2023-05-05T11:42:08.121Z,2.25
2023-05-05T11:45:24.043Z,2.40
2023-05-05T11:48:27.454Z,2.10
2023-05-05T11:51:32.712Z,2.30
2023-05-05T11:54:36.753Z,1.73
2023-05-05T11:57:39.463Z,2.40
2023-05-05T12:00:42.329Z,2.50
2023-05-05T12:03:46.378Z,2.28
2023-05-05T12:06:50.702Z,2.35
2023-05-05T12:09:53.974Z,2.28
2023-05-05T12:12:56.786Z,2.47
2023-05-05T12:16:09.543Z,2.10
2023-05-05T12:19:14.351Z,2.00
2023-05-05T12:22:23.120Z,2.30
2023-05-05T12:25:26.599Z,2.50
2023-05-05T12:28:44.263Z,2.10
2023-05-05T12:31:47.140Z,2.03
2023-05-05T12:34:54.113Z,1.88
2023-05-05T12:37:58.591Z,2.15
2023-05-05T12:41:01.336Z,2.05
2023-05-05T12:44:04.378Z,2.30
2023-05-05T12:47:08.221Z,2.20
2023-05-05T12:50:11.421Z,1.92
2023-05-05T12:53:22.982Z,2.38
2023-05-05T12:56:33.304Z,1.95
2023-05-05T12:59:36.284Z,2.35
2023-05-05T13:02:39.140Z,2.00
2023-05-05T13:05:41.944Z,1.90
2023-05-05T13:08:46.063Z,2.00
2023-05-05T13:11:49.089Z,2.13
2023-05-05T13:14:51.842Z,2.20
2023-05-05T13:18:00.512Z,1.88
2023-05-05T13:21:03.283Z,2.20
2023-05-05T13:24:23.466Z,2.03
2023-05-05T13:27:28.624Z,1.90
2023-05-05T13:30:31.340Z,2.13
2023-05-05T13:33:34.603Z,1.95
2023-05-05T13:36:37.730Z,2.42
2023-05-05T13:39:41.835Z,2.35
2023-05-05T13:42:44.590Z,2.33
2023-05-05T13:45:47.359Z,1.80
2023-05-05T13:48:52.497Z,2.40
2023-05-05T13:51:58.906Z,2.58
2023-05-05T13:55:02.983Z,1.90
2023-05-05T13:58:05.775Z,1.90
2023-05-05T14:01:08.621Z,2.03
2023-05-05T14:04:11.549Z,1.90
2023-05-05T14:07:14.331Z,1.88
2023-05-05T14:10:18.702Z,1.85
2023-05-05T14:13:21.489Z,2.03
2023-05-05T14:16:24.349Z,2.05
2023-05-05T14:19:27.597Z,2.55
2023-05-05T14:22:30.362Z,2.00
2023-05-05T14:25:34.449Z,2.10
2023-05-05T14:28:37.250Z,2.08
2023-05-05T14:31:40.002Z,1.95
2023-05-05T14:34:42.799Z,2.20
2023-05-05T14:37:45.580Z,1.95
2023-05-05T14:40:49.737Z,2.70
2023-05-05T14:43:52.573Z,1.88
2023-05-05T14:46:55.368Z,2.17
2023-05-05T14:49:58.396Z,2.03
2023-05-05T14:53:01.157Z,1.83
2023-05-05T14:56:05.649Z,2.00
2023-05-05T14:59:08.371Z,2.20
2023-05-05T15:02:11.093Z,1.85
2023-05-05T15:05:13.816Z,2.35
2023-05-05T15:08:18.622Z,1.95
2023-05-05T15:11:22.906Z,2.28
2023-05-05T15:14:26.471Z,2.25
2023-05-05T15:17:30.753Z,1.95
2023-05-05T15:20:33.727Z,2.17
2023-05-05T15:23:36.831Z,2.50
2023-05-05T15:26:40.984Z,2.13
2023-05-05T15:29:43.793Z,1.92
2023-05-05T15:32:46.660Z,2.35
2023-05-05T15:35:49.428Z,1.98
2023-05-05T15:38:52.197Z,2.28
2023-05-05T15:41:56.402Z,2.50
2023-05-05T15:45:00.156Z,2.20
2023-05-05T15:48:03.022Z,2.28
2023-05-05T15:51:05.872Z,2.03
2023-05-05T15:54:08.797Z,2.20
2023-05-05T15:57:12.877Z,1.95
2023-05-05T16:00:16.304Z,2.30
2023-05-05T16:03:19.160Z,2.42
2023-05-05T16:06:22.033Z,2.58
2023-05-05T16:09:24.883Z,2.17
2023-05-05T16:12:28.997Z,2.10
2023-05-05T16:15:31.776Z,2.03
2023-05-05T16:18:34.693Z,2.00
2023-05-05T16:21:37.487Z,1.70
2023-05-05T16:24:41.482Z,2.28
2023-05-05T16:27:47.228Z,2.28
2023-05-05T16:30:49.970Z,1.85
2023-05-05T16:33:52.760Z,1.98
2023-05-05T16:36:56.655Z,1.77
2023-05-05T16:40:01.290Z,2.00
2023-05-05T16:43:05.571Z,2.08
2023-05-05T16:46:08.392Z,2.35
2023-05-05T16:49:11.195Z,2.08
2023-05-05T16:52:13.962Z,2.20
2023-05-05T16:55:16.800Z,2.05
2023-05-05T16:58:21.007Z,2.00
2023-05-05T17:01:23.950Z,2.13
2023-05-05T17:04:27.104Z,2.25
2023-05-05T17:07:29.849Z,2.22
2023-05-05T17:10:32.558Z,1.90
2023-05-05T17:13:36.828Z,2.20
2023-05-05T17:16:39.632Z,2.10
2023-05-05T17:19:44.764Z,2.10
2023-05-05T17:22:47.557Z,2.28
2023-05-05T17:25:50.353Z,2.08
2023-05-05T17:28:54.489Z,2.60
2023-05-05T17:31:57.253Z,2.00
2023-05-05T17:34:59.988Z,2.13
2023-05-05T17:38:02.721Z,2.03
2023-05-05T17:41:06.417Z,2.38
2023-05-05T17:44:10.605Z,2.05
2023-05-05T17:47:13.360Z,2.33
2023-05-05T17:50:16.110Z,2.10
2023-05-05T17:53:18.841Z,2.28
2023-05-05T17:56:22.158Z,2.17
2023-05-05T17:59:26.541Z,2.25
2023-05-05T18:02:29.489Z,2.30
2023-05-05T18:05:32.349Z,3.10
2023-05-05T18:08:35.174Z,4.45
2023-05-05T18:11:37.951Z,8.65
2023-05-05T18:14:42.073Z,14.82
2023-05-05T18:17:44.895Z,27.38
2023-05-05T18:20:47.623Z,38.33
2023-05-05T18:23:50.820Z,40.72
2023-05-05T18:26:53.737Z,49.58
2023-05-05T18:29:57.831Z,50.17
2023-05-05T18:33:00.669Z,51.50
2023-05-05T18:36:04.293Z,51.17
2023-05-05T18:39:07.129Z,49.78
2023-05-05T18:42:09.908Z,49.50
2023-05-05T18:45:14.383Z,49.33
2023-05-05T18:48:17.245Z,48.63
2023-05-05T18:51:20.020Z,47.22
2023-05-05T18:54:22.852Z,47.42
2023-05-05T18:57:25.594Z,45.42
2023-05-05T19:00:29.746Z,43.42
2023-05-05T19:03:33.795Z,44.00
2023-05-05T19:06:36.920Z,44.70
2023-05-05T19:09:39.806Z,40.90
2023-05-05T19:12:42.629Z,39.45
2023-05-05T19:15:46.869Z,38.53
2023-05-05T19:18:50.727Z,39.22
2023-05-05T19:21:53.524Z,38.03
2023-05-05T19:24:56.231Z,37.65
2023-05-05T19:27:58.980Z,36.50
2023-05-05T19:31:03.376Z,35.22
2023-05-05T19:34:06.427Z,36.13
2023-05-05T19:37:09.177Z,35.65
2023-05-05T19:40:12.815Z,36.55
2023-05-05T19:43:15.952Z,35.42
2023-05-05T19:46:20.705Z,33.25
2023-05-05T19:49:23.559Z,31.65
2023-05-05T19:52:26.760Z,31.92
2023-05-05T19:55:29.517Z,33.03
2023-05-05T19:58:35.190Z,30.13
2023-05-05T20:01:39.469Z,28.48
2023-05-05T20:04:42.277Z,30.30
2023-05-05T20:07:46.284Z,28.83
2023-05-05T20:10:50.648Z,27.52
2023-05-05T20:13:53.707Z,28.02
2023-05-05T20:16:57.819Z,26.50
2023-05-05T20:20:00.619Z,27.08
2023-05-05T20:23:03.373Z,25.17
2023-05-05T20:26:06.426Z,25.63
2023-05-05T20:29:09.273Z,24.98
2023-05-05T20:32:13.531Z,23.48
2023-05-05T20:35:16.810Z,24.67
2023-05-05T20:38:19.582Z,22.15
2023-05-05T20:41:22.312Z,22.15
2023-05-05T20:44:25.095Z,22.23
2023-05-05T20:47:29.361Z,21.92
2023-05-05T20:50:32.241Z,21.10
2023-05-05T20:53:35.105Z,21.45
2023-05-05T20:56:37.872Z,19.98
2023-05-05T20:59:40.662Z,20.95
2023-05-05T21:02:44.869Z,20.65
2023-05-05T21:05:47.773Z,19.33
2023-05-05T21:08:50.637Z,18.42
2023-05-05T21:11:53.561Z,18.25
2023-05-05T21:14:58.579Z,18.27
2023-05-05T21:18:02.759Z,17.23
2023-05-05T21:21:05.639Z,17.42
2023-05-05T21:24:09.175Z,17.27
2023-05-05T21:27:11.923Z,16.08
2023-05-05T21:30:15.559Z,15.90
2023-05-05T21:33:19.976Z,14.63
2023-05-05T21:36:22.966Z,15.05
2023-05-05T21:39:25.933Z,14.98
2023-05-05T21:42:30.665Z,13.90
2023-05-05T21:45:33.938Z,15.50
2023-05-05T21:48:38.841Z,14.73
2023-05-05T21:51:42.119Z,13.32
2023-05-05T21:54:44.879Z,13.90
2023-05-05T21:57:47.654Z,12.45
2023-05-05T22:00:50.711Z,13.60
2023-05-05T22:03:55.103Z,12.48
2023-05-05T22:06:58.023Z,12.27
2023-05-05T22:10:01.616Z,11.88
2023-05-05T22:13:04.518Z,12.13
2023-05-05T22:16:07.899Z,11.63
2023-05-05T22:19:12.036Z,11.45
2023-05-05T22:22:15.972Z,11.20
2023-05-05T22:25:18.756Z,10.55
2023-05-05T22:28:22.245Z,11.10
2023-05-05T22:31:24.993Z,10.85
2023-05-05T22:34:29.168Z,10.43
2023-05-05T22:37:32.142Z,10.90
2023-05-05T22:40:35.010Z,10.20
2023-05-05T22:43:37.746Z,9.57
2023-05-05T22:46:40.912Z,10.30
2023-05-05T22:49:45.088Z,9.30
2023-05-05T22:52:48.039Z,9.70
2023-05-05T22:55:51.646Z,9.60
2023-05-05T22:58:54.428Z,9.63
2023-05-05T23:01:57.234Z,9.30
2023-05-05T23:05:01.465Z,8.13
2023-05-05T23:08:04.390Z,9.18
2023-05-05T23:11:07.175Z,8.50
2023-05-05T23:14:09.961Z,8.32
2023-05-05T23:17:12.864Z,8.75
2023-05-05T23:20:17.206Z,8.07
2023-05-05T23:23:20.000Z,8.55
2023-05-05T23:26:22.826Z,7.53
2023-05-05T23:29:25.654Z,8.50
2023-05-05T23:32:28.449Z,7.47
2023-05-05T23:35:32.657Z,7.65
2023-05-05T23:38:35.539Z,7.65
2023-05-05T23:41:38.550Z,8.00
2023-05-05T23:44:41.353Z,7.40
2023-05-05T23:47:44.186Z,6.97
2023-05-05T23:50:48.415Z,7.90
2023-05-05T23:53:51.196Z,7.15
2023-05-05T23:56:53.968Z,7.65
2023-05-05T23:59:56.712Z,6.70
